Capitol Logistics 615


KMIA
Miami International Airport
Miami, Florida, US
SKRG
José María Córdova International Airport
Medellin, , CO

Route Details

Aircraft Information
Primary: Boeing 767-300BDSF
Backup: Not Available
Route Data
Distance: 1226nm
Sched. Duration: 3h 29m
Avg. Duration: 2h 97m (-33m)
Times Flown: 4
Recm'd Route: EONNS2 EONNS A509 URSUS UA301 UCA UG430 BEREX UG430 KILER UQ121 AKPEK AKPE1C
Planned Altitude: 39,000ft
Origin Wx: KMIA 282053Z 33010G16KT 290V360 10SM CLR 20/04 A3018 RMK AO2 SLP221 T02000039 56014
Dest. Wx: SKRG 282100Z 09007KT 9999 SCT020 SCT200 22/13 A3026 NOSIG
Notes:

Financial History
Total Freight: 291,673lbs
Average Load: 72,918lbs/flt
Fuel Used: 103,179lbs
Avg. Fuel Used: 25,795lbs/flt
Fuel Expense: $129,582
Avg. Fuel Expense: $32,395
Avg. Fuel Cost: $1.24/lbs
Total Gross Income: $546,620
Pilot Pay: $706
Total Expenses: $59,243
Total Revenue: $354,765
Average Revenue: $136,654.89